Lyndell, Pennsylvania
Current Conditions -  °F | °C
As of 6:15 AM on Tuesday 21 Oct 2014 (Local Time) from KMQS Reporting Station
Broken Clouds Broken Clouds  
Wind Chill: 50°   Ceiling: 4900
Heat Index: 50°   Visibility: 10mi
Dew Point: 48°   Wind: 0mph
Humidity: 94%   Direction: NA
Pressure: 29.87"   Gusts: NA
Location:  40.06°N, 75.74°W
Report Text: KMQS 211015Z AUTO 00000KT 10SM BKN049 10/09 A2987 RMK AO2
Loading
Personal Weather Stations






























Interactive Weather Map New forecast layout! Learn more

10-Day Weather Forecast

Advertisements
Track Severe Weather on mobile